createdAt,value
2023-03-12T00:01:19.496Z,-1.44
2023-03-12T00:03:47.360Z,-1.44
2023-03-12T00:06:14.575Z,-1.44
2023-03-12T00:08:41.784Z,-1.45
2023-03-12T00:11:10.738Z,-1.43
2023-03-12T00:13:38.116Z,-1.42
2023-03-12T00:16:10.442Z,-1.39
2023-03-12T00:18:37.553Z,-1.39
2023-03-12T00:21:05.753Z,-1.39
2023-03-12T00:23:32.817Z,-1.37
2023-03-12T00:26:04.966Z,-1.36
2023-03-12T00:28:31.817Z,-1.37
2023-03-12T00:30:58.637Z,-1.37
2023-03-12T00:33:26.095Z,-1.37
2023-03-12T00:35:53.927Z,-1.36
2023-03-12T00:38:20.504Z,-1.36
2023-03-12T00:40:47.332Z,-1.36
2023-03-12T00:43:14.903Z,-1.37
2023-03-12T00:45:41.422Z,-1.38
2023-03-12T00:48:07.889Z,-1.38
2023-03-12T00:50:34.316Z,-1.39
2023-03-12T00:53:00.873Z,-1.38
2023-03-12T00:55:27.594Z,-1.39
2023-03-12T00:57:54.262Z,-1.40
2023-03-12T01:00:21.369Z,-1.40
2023-03-12T01:02:48.186Z,-1.40
2023-03-12T01:05:15.548Z,-1.41
2023-03-12T01:07:42.717Z,-1.43
2023-03-12T01:10:11.871Z,-1.46
2023-03-12T01:12:38.586Z,-1.49
2023-03-12T01:15:05.828Z,-1.52
2023-03-12T01:17:32.274Z,-1.54
2023-03-12T01:19:58.833Z,-1.56
2023-03-12T01:22:25.528Z,-1.59
2023-03-12T01:24:51.973Z,-1.63
2023-03-12T01:27:18.505Z,-1.67
2023-03-12T01:29:45.330Z,-1.69
2023-03-12T01:32:11.863Z,-1.70
2023-03-12T01:34:38.333Z,-1.70
2023-03-12T01:37:05.157Z,-1.69
2023-03-12T01:39:31.625Z,-1.68
2023-03-12T01:41:58.205Z,-1.67
2023-03-12T01:44:24.779Z,-1.67
2023-03-12T01:46:51.203Z,-1.67
2023-03-12T01:49:33.345Z,-1.69
2023-03-12T01:52:04.789Z,-1.72
2023-03-12T01:54:37.551Z,-1.74
2023-03-12T01:57:06.376Z,-1.78
2023-03-12T01:59:39.142Z,-1.83
2023-03-12T02:02:06.955Z,-1.85
2023-03-12T02:04:34.872Z,-1.85
2023-03-12T02:07:08.703Z,-1.86
2023-03-12T02:09:39.894Z,-1.87
2023-03-12T02:12:07.913Z,-1.91
2023-03-12T02:14:34.990Z,-1.92
2023-03-12T02:17:02.511Z,-1.94
2023-03-12T02:20:12.813Z,-1.98
2023-03-12T02:22:42.504Z,-2.03
2023-03-12T02:25:36.709Z,-2.04
2023-03-12T02:28:07.551Z,-2.05
2023-03-12T02:30:34.300Z,-2.03
2023-03-12T02:33:05.506Z,-2.03
2023-03-12T02:35:32.408Z,-2.03
2023-03-12T02:37:59.133Z,-2.03
2023-03-12T02:40:39.290Z,-2.04
2023-03-12T02:43:07.775Z,-2.03
2023-03-12T02:45:36.985Z,-2.02
2023-03-12T02:48:08.214Z,-2.03
2023-03-12T02:50:34.645Z,-2.01
2023-03-12T02:53:01.079Z,-2.03
2023-03-12T02:55:27.624Z,-2.06
2023-03-12T02:57:54.097Z,-2.10
2023-03-12T03:00:21.099Z,-2.17
2023-03-12T03:02:47.625Z,-2.23
2023-03-12T03:05:14.241Z,-2.32
2023-03-12T03:07:40.943Z,-2.39
2023-03-12T03:10:08.516Z,-2.44
2023-03-12T03:12:36.747Z,-2.50
2023-03-12T03:15:05.085Z,-2.52
2023-03-12T03:17:31.945Z,-2.58
2023-03-12T03:19:58.591Z,-2.62
2023-03-12T03:22:25.240Z,-2.69
2023-03-12T03:24:53.344Z,-2.77
2023-03-12T03:27:20.096Z,-2.86
2023-03-12T03:29:46.821Z,-2.95
2023-03-12T03:32:13.359Z,-3.03
2023-03-12T03:34:40.040Z,-3.07
2023-03-12T03:37:06.717Z,-3.06
2023-03-12T03:39:33.298Z,-3.06
2023-03-12T03:42:00.118Z,-3.07
2023-03-12T03:44:26.604Z,-3.10
2023-03-12T03:46:53.560Z,-3.11
2023-03-12T03:49:20.099Z,-3.12
2023-03-12T03:51:46.925Z,-3.16
2023-03-12T03:54:13.713Z,-3.21
2023-03-12T03:56:40.983Z,-3.24
2023-03-12T03:59:07.511Z,-3.33
2023-03-12T04:01:34.063Z,-3.40
2023-03-12T04:04:00.819Z,-3.49
2023-03-12T04:06:27.374Z,-3.56
2023-03-12T04:08:53.905Z,-3.61
2023-03-12T04:11:21.986Z,-3.67
2023-03-12T04:13:49.637Z,-3.84
2023-03-12T04:16:17.003Z,-4.00
2023-03-12T04:18:44.558Z,-4.15
2023-03-12T04:21:13.357Z,-4.20
2023-03-12T04:23:40.259Z,-4.23
2023-03-12T04:26:07.838Z,-4.30
2023-03-12T04:28:35.281Z,-4.36
2023-03-12T04:31:04.645Z,-4.42
2023-03-12T04:33:34.753Z,-4.49
2023-03-12T04:36:01.527Z,-4.54
2023-03-12T04:38:28.671Z,-4.60
2023-03-12T04:41:07.492Z,-4.66
2023-03-12T04:43:34.757Z,-4.67
2023-03-12T04:46:02.086Z,-4.72
2023-03-12T04:48:28.871Z,-4.67
2023-03-12T04:50:55.712Z,-4.66
2023-03-12T04:53:22.777Z,-4.66
2023-03-12T04:55:49.311Z,-4.63
2023-03-12T04:58:16.722Z,-4.64
2023-03-12T05:00:43.502Z,-4.67
2023-03-12T05:03:10.094Z,-4.68
2023-03-12T05:05:36.768Z,-4.61
2023-03-12T05:08:04.729Z,-4.49
2023-03-12T05:10:31.976Z,-4.34
2023-03-12T05:12:58.836Z,-4.23
2023-03-12T05:15:25.994Z,-3.99
2023-03-12T05:17:54.767Z,-3.82
2023-03-12T05:20:21.504Z,-3.66
2023-03-12T05:22:48.081Z,-3.47
2023-03-12T05:25:14.627Z,-3.28
2023-03-12T05:27:41.085Z,-3.20
2023-03-12T05:30:08.233Z,-3.21
2023-03-12T05:32:34.743Z,-3.21
2023-03-12T05:35:01.421Z,-3.15
2023-03-12T05:37:28.274Z,-3.08
2023-03-12T05:39:54.922Z,-2.89
2023-03-12T05:42:21.518Z,-2.66
2023-03-12T05:44:47.976Z,-2.47
2023-03-12T05:47:14.392Z,-2.29
2023-03-12T05:49:40.871Z,-2.04
2023-03-12T05:52:07.486Z,-1.82
2023-03-12T05:54:34.287Z,-1.68
2023-03-12T05:57:00.809Z,-1.55
2023-03-12T05:59:27.376Z,-1.19
2023-03-12T06:01:53.978Z,-0.91
2023-03-12T06:04:20.529Z,-0.80
2023-03-12T06:06:47.940Z,-0.37
2023-03-12T06:09:14.366Z,-0.21
2023-03-12T06:11:40.919Z,-0.38
2023-03-12T06:14:07.334Z,-0.47
2023-03-12T06:16:33.784Z,-0.48
2023-03-12T06:19:02.389Z,-0.40
2023-03-12T06:21:32.120Z,-0.33
2023-03-12T06:23:59.377Z,-0.21
2023-03-12T06:26:26.738Z,0.08
2023-03-12T06:28:54.426Z,0.42
2023-03-12T06:31:22.410Z,0.82
2023-03-12T06:33:49.002Z,1.17
2023-03-12T06:36:15.556Z,1.55
2023-03-12T06:38:41.992Z,1.85
2023-03-12T06:41:15.113Z,2.17
2023-03-12T06:43:42.751Z,2.41
2023-03-12T06:46:13.166Z,2.52
2023-03-12T06:48:39.778Z,2.60
2023-03-12T06:51:09.978Z,2.68
2023-03-12T06:53:36.711Z,2.77
2023-03-12T06:56:04.334Z,2.61
2023-03-12T06:58:31.396Z,2.32
2023-03-12T07:00:58.130Z,2.03
2023-03-12T07:03:25.398Z,1.80
2023-03-12T07:05:52.148Z,1.49
2023-03-12T07:08:18.804Z,1.18
2023-03-12T07:10:46.574Z,0.88
2023-03-12T07:13:13.714Z,0.70
2023-03-12T07:15:40.580Z,0.55
2023-03-12T07:18:12.048Z,0.43
2023-03-12T07:20:42.603Z,0.33
2023-03-12T07:23:09.354Z,0.20
2023-03-12T07:25:38.011Z,0.12
2023-03-12T07:28:04.675Z,0.05
2023-03-12T07:30:31.360Z,0.06
2023-03-12T07:32:58.147Z,0.03
2023-03-12T07:35:24.828Z,0.15
2023-03-12T07:37:51.324Z,0.50
2023-03-12T07:40:18.043Z,1.01
2023-03-12T07:42:44.576Z,1.36
2023-03-12T07:45:11.541Z,1.74
2023-03-12T07:47:38.247Z,1.70
2023-03-12T07:50:05.130Z,2.24
2023-03-12T07:52:31.882Z,2.67
2023-03-12T07:54:58.667Z,3.15
2023-03-12T07:57:25.322Z,3.35
2023-03-12T07:59:52.450Z,3.31
2023-03-12T08:02:19.218Z,3.28
2023-03-12T08:04:46.936Z,3.31
2023-03-12T08:07:14.264Z,3.37
2023-03-12T08:09:41.553Z,3.31
2023-03-12T08:12:08.900Z,3.48
2023-03-12T08:14:36.397Z,3.59
2023-03-12T08:17:02.991Z,3.48
2023-03-12T08:19:29.422Z,3.37
2023-03-12T08:21:55.824Z,3.24
2023-03-12T08:24:22.424Z,3.37
2023-03-12T08:26:48.974Z,3.39
2023-03-12T08:29:17.371Z,3.49
2023-03-12T08:32:01.562Z,3.60
2023-03-12T08:34:30.623Z,3.55
2023-03-12T08:36:57.592Z,3.56
2023-03-12T08:39:24.171Z,3.55
2023-03-12T08:41:50.637Z,3.60
2023-03-12T08:44:17.203Z,3.77
2023-03-12T08:46:43.603Z,3.86
2023-03-12T08:49:13.466Z,3.85
2023-03-12T08:51:40.114Z,3.99
2023-03-12T08:54:06.559Z,4.17
2023-03-12T08:56:33.298Z,4.30
2023-03-12T08:58:59.946Z,4.10
2023-03-12T09:01:26.485Z,4.12
2023-03-12T09:03:52.944Z,4.29
2023-03-12T09:06:19.730Z,4.52
2023-03-12T09:08:46.931Z,4.92
2023-03-12T09:11:15.572Z,5.14
2023-03-12T09:14:03.953Z,5.06
2023-03-12T09:16:29.743Z,5.24
2023-03-12T09:18:56.366Z,5.24
2023-03-12T09:21:22.920Z,5.56
2023-03-12T09:23:49.336Z,5.71
2023-03-12T09:26:15.916Z,5.44
2023-03-12T09:28:42.446Z,5.42
2023-03-12T09:31:09.062Z,5.44
2023-03-12T09:33:35.532Z,5.33
2023-03-12T09:36:02.863Z,5.44
2023-03-12T09:38:30.358Z,5.67
2023-03-12T09:40:56.895Z,5.71
2023-03-12T09:43:31.701Z,5.92
2023-03-12T09:45:59.812Z,6.06
2023-03-12T09:48:32.579Z,6.04
2023-03-12T09:51:02.885Z,5.76
2023-03-12T09:53:40.023Z,5.52
2023-03-12T09:56:14.568Z,5.34
2023-03-12T09:58:41.385Z,5.45
2023-03-12T10:01:18.855Z,5.63
2023-03-12T10:03:51.592Z,5.92
2023-03-12T10:06:35.397Z,6.24
2023-03-12T10:09:20.832Z,6.24
2023-03-12T10:12:09.698Z,6.03
2023-03-12T10:14:48.513Z,5.90
2023-03-12T10:17:15.189Z,5.81
2023-03-12T10:19:56.066Z,5.70
2023-03-12T10:22:49.684Z,5.71
2023-03-12T10:25:19.092Z,5.78
2023-03-12T10:27:50.405Z,5.75
2023-03-12T10:30:18.699Z,5.63
2023-03-12T10:33:01.135Z,5.56
2023-03-12T10:35:29.293Z,5.63
2023-03-12T10:38:04.569Z,5.79
2023-03-12T10:40:36.701Z,5.79
2023-03-12T10:43:04.699Z,5.66
2023-03-12T10:45:34.731Z,5.59
2023-03-12T10:48:07.680Z,5.57
2023-03-12T10:50:38.096Z,5.62
2023-03-12T10:53:22.057Z,5.71
2023-03-12T10:56:01.580Z,5.66
2023-03-12T10:58:33.499Z,5.55
2023-03-12T11:01:02.017Z,5.33
2023-03-12T11:03:29.771Z,5.19
2023-03-12T11:05:59.667Z,5.15
2023-03-12T11:08:29.526Z,5.32
2023-03-12T11:10:58.513Z,5.62
2023-03-12T11:13:29.561Z,5.92
2023-03-12T11:15:58.868Z,5.98
2023-03-12T11:18:35.575Z,5.82
2023-03-12T11:21:11.203Z,5.70
2023-03-12T11:23:41.235Z,5.88
2023-03-12T11:26:23.327Z,6.06
2023-03-12T11:29:01.314Z,6.06
2023-03-12T11:31:37.726Z,6.01
2023-03-12T11:34:27.790Z,5.98
2023-03-12T11:37:19.220Z,6.23
2023-03-12T11:40:17.408Z,6.17
2023-03-12T11:43:09.050Z,6.21
2023-03-12T11:45:54.904Z,6.31
2023-03-12T11:48:42.376Z,6.30
2023-03-12T11:51:17.969Z,6.15
2023-03-12T11:53:53.703Z,5.92
2023-03-12T11:56:33.909Z,5.66
2023-03-12T11:59:23.061Z,5.40
2023-03-12T12:02:11.151Z,5.28
2023-03-12T12:05:15.027Z,5.32
2023-03-12T12:08:03.084Z,5.37
2023-03-12T12:10:54.415Z,5.26
2023-03-12T12:13:27.315Z,5.16
2023-03-12T12:16:21.661Z,5.09
2023-03-12T12:18:57.684Z,4.96
2023-03-12T12:21:49.427Z,5.06
2023-03-12T12:24:28.430Z,5.25
2023-03-12T12:27:15.132Z,5.26
2023-03-12T12:30:09.948Z,5.17
2023-03-12T12:32:42.854Z,5.13
2023-03-12T12:35:41.543Z,5.01
2023-03-12T12:38:23.290Z,5.12
2023-03-12T12:40:49.723Z,5.34
2023-03-12T12:43:39.414Z,5.56
2023-03-12T12:46:16.198Z,5.56
2023-03-12T12:48:48.685Z,5.59
2023-03-12T12:51:19.898Z,5.58
2023-03-12T12:53:46.368Z,5.63
2023-03-12T12:56:20.076Z,5.66
2023-03-12T12:59:25.087Z,5.69
2023-03-12T13:01:55.374Z,5.74
2023-03-12T13:04:27.046Z,5.70
2023-03-12T13:07:00.850Z,5.71
2023-03-12T13:09:38.346Z,5.83
2023-03-12T13:12:33.584Z,5.93
2023-03-12T13:15:02.459Z,5.89
2023-03-12T13:17:30.469Z,5.74
2023-03-12T13:20:11.780Z,5.72
2023-03-12T13:22:53.665Z,5.66
2023-03-12T13:25:39.878Z,5.79
2023-03-12T13:28:30.399Z,5.91
2023-03-12T13:30:59.537Z,5.97
2023-03-12T13:33:46.713Z,5.91
2023-03-12T13:36:16.127Z,5.88
2023-03-12T13:39:06.029Z,5.83
2023-03-12T13:41:46.199Z,5.81
2023-03-12T13:44:32.293Z,5.93
2023-03-12T13:47:10.953Z,6.03
2023-03-12T13:49:56.504Z,6.11
2023-03-12T13:52:26.690Z,6.24
2023-03-12T13:55:14.562Z,6.26
2023-03-12T13:57:45.651Z,6.38
2023-03-12T14:00:21.395Z,6.55
2023-03-12T14:02:59.841Z,6.69
2023-03-12T14:05:28.392Z,6.83
2023-03-12T14:08:03.877Z,6.97
2023-03-12T14:10:43.960Z,7.14
2023-03-12T14:13:25.819Z,7.18
2023-03-12T14:16:16.262Z,7.12
2023-03-12T14:18:45.670Z,7.12
2023-03-12T14:21:16.473Z,7.13
2023-03-12T14:24:05.662Z,7.07
2023-03-12T14:26:35.505Z,7.09
2023-03-12T14:29:11.008Z,7.25
2023-03-12T14:31:38.657Z,7.87
2023-03-12T14:34:20.789Z,8.74
2023-03-12T14:37:15.606Z,9.47
2023-03-12T14:39:50.831Z,10.31
2023-03-12T14:42:36.697Z,10.77
2023-03-12T14:45:06.175Z,11.31
2023-03-12T14:47:40.536Z,11.62
2023-03-12T14:50:07.722Z,11.59
2023-03-12T14:52:34.260Z,11.33
2023-03-12T14:55:04.773Z,11.17
2023-03-12T14:57:31.353Z,11.53
2023-03-12T15:00:00.449Z,11.76
2023-03-12T15:02:31.651Z,10.99
2023-03-12T15:05:01.381Z,10.10
2023-03-12T15:07:33.055Z,9.52
2023-03-12T15:10:00.766Z,9.78
2023-03-12T15:12:34.104Z,10.60
2023-03-12T15:15:06.485Z,11.27
2023-03-12T15:17:34.527Z,11.66
2023-03-12T15:20:05.055Z,11.64
2023-03-12T15:22:32.769Z,10.94
2023-03-12T15:25:15.488Z,10.61
2023-03-12T15:27:42.037Z,9.79
2023-03-12T15:30:26.514Z,8.98
2023-03-12T15:33:03.973Z,8.32
2023-03-12T15:35:31.215Z,7.92
2023-03-12T15:37:58.127Z,7.62
2023-03-12T15:40:30.688Z,7.44
2023-03-12T15:42:59.664Z,7.22
2023-03-12T15:45:36.049Z,7.01
2023-03-12T15:48:05.836Z,6.81
2023-03-12T15:50:44.034Z,6.57
2023-03-12T15:53:13.889Z,6.32
2023-03-12T15:55:41.259Z,6.18
2023-03-12T15:58:26.419Z,6.03
2023-03-12T16:00:53.365Z,5.86
2023-03-12T16:03:21.960Z,5.71
2023-03-12T16:05:51.574Z,5.53
2023-03-12T16:08:22.627Z,5.38
2023-03-12T16:10:50.312Z,5.24
2023-03-12T16:13:19.038Z,5.08
2023-03-12T16:15:47.814Z,4.96
2023-03-12T16:18:17.608Z,4.86
2023-03-12T16:20:45.434Z,4.75
2023-03-12T16:23:13.137Z,4.68
2023-03-12T16:25:43.522Z,4.59
2023-03-12T16:28:14.592Z,4.53
2023-03-12T16:30:41.192Z,4.46
2023-03-12T16:33:09.485Z,4.40
2023-03-12T16:35:36.361Z,4.33
2023-03-12T16:38:03.693Z,4.26
2023-03-12T16:40:35.453Z,4.20
2023-03-12T16:43:04.148Z,4.13
2023-03-12T16:45:33.940Z,4.06
2023-03-12T16:48:05.017Z,3.99
2023-03-12T16:50:31.798Z,3.93
2023-03-12T16:52:58.617Z,3.86
2023-03-12T16:55:30.488Z,3.78
2023-03-12T16:58:01.617Z,3.68
2023-03-12T17:00:31.047Z,3.57
2023-03-12T17:02:59.023Z,3.44
2023-03-12T17:05:27.789Z,3.32
2023-03-12T17:07:55.189Z,3.18
2023-03-12T17:10:23.656Z,3.01
2023-03-12T17:12:50.879Z,2.86
2023-03-12T17:15:21.304Z,2.74
2023-03-12T17:17:49.252Z,2.65
2023-03-12T17:20:19.097Z,2.59
2023-03-12T17:22:46.433Z,2.51
2023-03-12T17:25:26.281Z,2.45
2023-03-12T17:27:53.541Z,2.40
2023-03-12T17:30:20.508Z,2.36
2023-03-12T17:32:47.027Z,2.35
2023-03-12T17:35:14.242Z,2.33
2023-03-12T17:37:40.863Z,2.28
2023-03-12T17:40:08.563Z,2.22
2023-03-12T17:42:36.023Z,2.18
2023-03-12T17:45:07.339Z,2.13
2023-03-12T17:47:34.000Z,2.07
2023-03-12T17:50:00.555Z,2.02
2023-03-12T17:52:27.076Z,1.96
2023-03-12T17:54:53.778Z,1.91
2023-03-12T17:57:20.298Z,1.87
2023-03-12T17:59:46.731Z,1.85
2023-03-12T18:02:14.125Z,1.81
2023-03-12T18:04:41.029Z,1.76
2023-03-12T18:07:07.894Z,1.72
2023-03-12T18:09:34.353Z,1.68
2023-03-12T18:12:01.016Z,1.63
2023-03-12T18:14:28.446Z,1.58
2023-03-12T18:16:54.871Z,1.55
2023-03-12T18:19:21.585Z,1.52
2023-03-12T18:21:48.181Z,1.50
2023-03-12T18:24:15.130Z,1.48
2023-03-12T18:26:41.979Z,1.44
2023-03-12T18:29:08.522Z,1.40
2023-03-12T18:31:34.965Z,1.34
2023-03-12T18:34:01.577Z,1.28
2023-03-12T18:36:28.261Z,1.23
2023-03-12T18:38:54.919Z,1.17
2023-03-12T18:41:21.559Z,1.13
2023-03-12T18:43:48.229Z,1.10
2023-03-12T18:46:14.734Z,1.07
2023-03-12T18:48:43.971Z,1.04
2023-03-12T18:51:11.036Z,0.97
2023-03-12T18:53:37.513Z,0.89
2023-03-12T18:56:04.637Z,0.82
2023-03-12T18:58:31.058Z,0.75
2023-03-12T19:00:58.562Z,0.72
2023-03-12T19:03:26.314Z,0.69
2023-03-12T19:06:04.737Z,0.66
2023-03-12T19:08:31.698Z,0.60
2023-03-12T19:10:58.369Z,0.54
2023-03-12T19:13:25.411Z,0.48
2023-03-12T19:15:58.636Z,0.44
2023-03-12T19:18:25.342Z,0.39
2023-03-12T19:20:51.796Z,0.34
2023-03-12T19:23:18.572Z,0.31
2023-03-12T19:25:45.292Z,0.27
2023-03-12T19:28:11.929Z,0.20
2023-03-12T19:30:38.488Z,0.12
2023-03-12T19:33:05.144Z,0.07
2023-03-12T19:35:32.060Z,0.03
2023-03-12T19:37:58.738Z,-0.01
2023-03-12T19:40:26.072Z,-0.05
2023-03-12T19:42:52.543Z,-0.07
2023-03-12T19:45:19.091Z,-0.09
2023-03-12T19:47:45.718Z,-0.12
2023-03-12T19:50:12.585Z,-0.13
2023-03-12T19:52:39.229Z,-0.13
2023-03-12T19:55:05.983Z,-0.13
2023-03-12T19:57:33.988Z,-0.11
2023-03-12T20:00:00.711Z,-0.12
2023-03-12T20:02:27.545Z,-0.11
2023-03-12T20:04:54.475Z,-0.10
2023-03-12T20:07:21.060Z,-0.09
2023-03-12T20:09:47.531Z,-0.10
2023-03-12T20:12:14.059Z,-0.11
2023-03-12T20:14:42.760Z,-0.12
2023-03-12T20:17:10.031Z,-0.14
2023-03-12T20:19:36.665Z,-0.16
2023-03-12T20:22:03.392Z,-0.17
2023-03-12T20:24:30.127Z,-0.18
2023-03-12T20:26:56.889Z,-0.19
2023-03-12T20:29:24.048Z,-0.22
2023-03-12T20:31:51.019Z,-0.28
2023-03-12T20:34:19.087Z,-0.33
2023-03-12T20:36:45.632Z,-0.37
2023-03-12T20:39:12.201Z,-0.40
2023-03-12T20:41:39.150Z,-0.40
2023-03-12T20:44:05.607Z,-0.39
2023-03-12T20:46:32.344Z,-0.37
2023-03-12T20:48:58.981Z,-0.36
2023-03-12T20:51:25.775Z,-0.35
2023-03-12T20:53:52.478Z,-0.34
2023-03-12T20:56:19.029Z,-0.34
2023-03-12T20:58:45.549Z,-0.32
2023-03-12T21:01:12.104Z,-0.29
2023-03-12T21:03:38.584Z,-0.28
2023-03-12T21:06:05.719Z,-0.29
2023-03-12T21:08:36.496Z,-0.27
2023-03-12T21:11:07.418Z,-0.26
2023-03-12T21:13:34.473Z,-0.25
2023-03-12T21:16:00.906Z,-0.22
2023-03-12T21:18:27.561Z,-0.18
2023-03-12T21:20:54.453Z,-0.15
2023-03-12T21:23:21.493Z,-0.15
2023-03-12T21:25:48.124Z,-0.14
2023-03-12T21:28:15.100Z,-0.13
2023-03-12T21:30:41.544Z,-0.12
2023-03-12T21:33:08.154Z,-0.11
2023-03-12T21:35:34.628Z,-0.12
2023-03-12T21:38:01.234Z,-0.14
2023-03-12T21:40:27.989Z,-0.18
2023-03-12T21:42:54.529Z,-0.20
2023-03-12T21:45:20.933Z,-0.21
2023-03-12T21:47:47.437Z,-0.19
2023-03-12T21:50:13.967Z,-0.15
2023-03-12T21:52:43.368Z,-0.12
2023-03-12T21:55:11.048Z,-0.12
2023-03-12T21:57:37.595Z,-0.10
2023-03-12T22:00:05.150Z,-0.07
2023-03-12T22:02:32.176Z,-0.05
2023-03-12T22:04:59.597Z,-0.05
2023-03-12T22:07:26.133Z,-0.02
2023-03-12T22:09:52.732Z,-0.01
2023-03-12T22:12:19.153Z,0.02
2023-03-12T22:14:45.722Z,0.06
2023-03-12T22:17:12.202Z,0.09
2023-03-12T22:19:40.379Z,0.11
2023-03-12T22:22:09.097Z,0.15
2023-03-12T22:24:35.588Z,0.18
2023-03-12T22:27:02.210Z,0.19
2023-03-12T22:29:29.250Z,0.21
2023-03-12T22:31:55.993Z,0.26
2023-03-12T22:34:22.527Z,0.30
2023-03-12T22:36:49.078Z,0.35
2023-03-12T22:39:18.607Z,0.39
2023-03-12T22:41:49.450Z,0.41
2023-03-12T22:44:16.271Z,0.45
2023-03-12T22:46:42.958Z,0.50
2023-03-12T22:49:09.528Z,0.54
2023-03-12T22:51:36.029Z,0.55
2023-03-12T22:54:02.626Z,0.59
2023-03-12T22:56:29.442Z,0.60
2023-03-12T22:58:55.972Z,0.57
2023-03-12T23:01:23.745Z,0.56
2023-03-12T23:03:50.713Z,0.54
2023-03-12T23:06:26.303Z,0.52
2023-03-12T23:08:54.138Z,0.55
2023-03-12T23:11:20.829Z,0.57
2023-03-12T23:13:47.791Z,0.60
2023-03-12T23:16:18.189Z,0.62
2023-03-12T23:18:45.739Z,0.63
2023-03-12T23:21:21.188Z,0.68
2023-03-12T23:23:48.436Z,0.68
2023-03-12T23:26:18.346Z,0.70
2023-03-12T23:28:44.996Z,0.71
2023-03-12T23:31:11.550Z,0.71
2023-03-12T23:33:38.305Z,0.72
2023-03-12T23:36:14.494Z,0.74
2023-03-12T23:38:41.005Z,0.78
2023-03-12T23:41:15.172Z,0.81
2023-03-12T23:43:42.129Z,0.84
2023-03-12T23:46:10.468Z,0.86
2023-03-12T23:48:38.597Z,0.88
2023-03-12T23:51:16.113Z,0.91
2023-03-12T23:53:44.841Z,0.93
2023-03-12T23:56:17.664Z,0.94
2023-03-12T23:58:44.539Z,0.96
